Time;durP1;ratioP1;P1;durP2;ratioP2;P2;SDS_P1;SDS_P2;PMS_P1;PMS_P2;Temp;Humidity;BMP_temperature;BMP_pressure;BME280_temperature;BME280_humidity;BME280_pressure;Samples;Min_cycle;Max_cycle;Signal;HPM_P1;HPM_P2
2023/05/18 00:01:13;;;;;;;;;1.00;1.00;;;;;22.05;41.00;101774.70;110266;1257;22098;-40
2023/05/18 00:03:40;;;;;;;;;1.00;1.00;;;;;22.04;41.04;101764.37;110262;1265;22275;-40
2023/05/18 00:06:08;;;;;;;;;1.00;1.00;;;;;22.03;40.91;101765.15;110240;1265;18702;-39
2023/05/18 00:08:36;;;;;;;;;1.00;1.00;;;;;22.04;40.86;101766.53;110253;1251;22135;-39
2023/05/18 00:11:03;;;;;;;;;2.00;2.00;;;;;22.04;40.96;101773.69;110282;1265;18568;-40
2023/05/18 00:13:31;;;;;;;;;1.00;1.00;;;;;22.04;40.93;101774.61;110234;1265;21551;-40
2023/05/18 00:15:58;;;;;;;;;2.00;1.00;;;;;22.04;40.89;101778.00;110276;1249;22296;-44
2023/05/18 00:18:26;;;;;;;;;1.00;1.00;;;;;22.04;41.02;101777.83;110286;1251;20867;-39
2023/05/18 00:20:57;;;;;;;;;1.00;1.00;;;;;22.04;40.92;101778.02;110268;1257;20643;-40
2023/05/18 00:23:25;;;;;;;;;1.00;1.00;;;;;22.04;40.88;101778.54;110261;1249;20852;-39
2023/05/18 00:25:52;;;;;;;;;2.00;2.00;;;;;22.04;40.89;101774.95;110281;1265;18660;-39
2023/05/18 00:28:19;;;;;;;;;1.00;1.00;;;;;22.04;40.99;101777.00;110278;1265;20038;-38
2023/05/18 00:30:47;;;;;;;;;2.00;2.00;;;;;22.04;40.86;101782.26;110270;1265;20713;-38
2023/05/18 00:33:14;;;;;;;;;1.00;1.00;;;;;22.04;41.06;101782.64;110286;1257;22173;-38
2023/05/18 00:35:42;;;;;;;;;1.00;1.00;;;;;22.03;40.77;101782.29;110267;1266;18600;-39
2023/05/18 00:38:10;;;;;;;;;1.00;1.00;;;;;22.03;40.97;101785.95;110287;1251;20723;-39
2023/05/18 00:40:38;;;;;;;;;1.00;1.00;;;;;22.04;40.77;101783.46;110266;1266;22876;-39
2023/05/18 00:43:05;;;;;;;;;1.00;1.00;;;;;22.04;40.97;101781.52;110292;1265;18595;-38
2023/05/18 00:45:33;;;;;;;;;1.00;1.00;;;;;22.03;40.94;101780.86;110180;1265;120679;-40
2023/05/18 00:48:00;;;;;;;;;1.00;1.00;;;;;22.03;40.85;101785.02;110298;1251;19630;-39
2023/05/18 00:50:28;;;;;;;;;1.00;1.00;;;;;22.03;40.96;101786.73;110299;1251;20123;-39
2023/05/18 00:52:55;;;;;;;;;1.00;1.00;;;;;22.04;40.79;101784.61;110252;1251;20645;-39
2023/05/18 00:55:23;;;;;;;;;1.00;1.00;;;;;22.04;40.68;101786.97;110286;1265;19617;-39
2023/05/18 00:57:50;;;;;;;;;1.00;1.00;;;;;22.01;40.80;101785.42;110280;1250;20022;-39
2023/05/18 01:00:19;;;;;;;;;1.00;1.00;;;;;22.02;40.90;101794.61;110259;1250;19496;-39
2023/05/18 01:02:49;;;;;;;;;1.00;1.00;;;;;22.02;40.90;101800.04;110247;1265;23051;-40
2023/05/18 01:05:18;;;;;;;;;1.00;1.00;;;;;22.03;40.94;101797.09;110274;1266;18573;-39
2023/05/18 01:07:46;;;;;;;;;1.00;1.00;;;;;22.03;40.91;101795.59;110271;1265;22386;-38
2023/05/18 01:10:14;;;;;;;;;1.00;1.00;;;;;22.02;40.75;101800.48;110292;1265;18435;-39
2023/05/18 01:12:41;;;;;;;;;1.00;1.00;;;;;22.02;40.93;101801.36;110261;1260;19953;-40
2023/05/18 01:15:09;;;;;;;;;1.00;1.00;;;;;22.02;40.72;101801.88;110266;1265;22279;-39
2023/05/18 01:17:36;;;;;;;;;1.00;1.00;;;;;22.02;40.82;101805.53;110286;1260;19722;-39
2023/05/18 01:20:05;;;;;;;;;1.00;1.00;;;;;22.02;40.83;101805.94;110295;1250;19814;-39
2023/05/18 01:22:33;;;;;;;;;1.00;1.00;;;;;22.02;40.83;101808.49;110344;1251;20774;-39
2023/05/18 01:25:03;;;;;;;;;1.00;1.00;;;;;22.01;40.94;101805.11;110267;1265;18494;-39
2023/05/18 01:27:36;;;;;;;;;1.00;1.00;;;;;22.02;40.84;101810.98;110284;1265;22197;-39
2023/05/18 01:30:03;;;;;;;;;1.00;1.00;;;;;22.01;40.86;101808.20;110309;1265;21959;-38
2023/05/18 01:32:31;;;;;;;;;1.00;1.00;;;;;22.02;40.82;101815.19;110225;1266;18954;-38
2023/05/18 01:34:58;;;;;;;;;1.00;1.00;;;;;22.01;40.86;101816.00;110262;1265;19919;-38
2023/05/18 01:37:26;;;;;;;;;1.00;1.00;;;;;22.00;40.87;101816.47;110262;1260;22072;-39
2023/05/18 01:39:53;;;;;;;;;2.00;2.00;;;;;22.01;40.61;101820.38;110250;1251;19693;-39
2023/05/18 01:42:21;;;;;;;;;1.00;1.00;;;;;22.02;40.69;101820.34;110266;1249;20113;-39
2023/05/18 01:44:48;;;;;;;;;1.00;1.00;;;;;22.02;40.76;101821.02;110270;1265;20639;-39
2023/05/18 01:47:16;;;;;;;;;2.00;1.00;;;;;22.02;40.72;101825.02;110249;1251;19677;-39
2023/05/18 01:49:43;;;;;;;;;1.00;1.00;;;;;22.02;40.79;101823.75;110224;1265;22302;-39
2023/05/18 01:52:10;;;;;;;;;1.00;1.00;;;;;22.02;40.70;101826.27;110195;1265;21035;-38
2023/05/18 01:54:38;;;;;;;;;1.00;1.00;;;;;22.02;40.64;101824.44;110237;1265;18517;-39
2023/05/18 01:57:05;;;;;;;;;1.00;1.00;;;;;22.03;40.76;101824.23;110232;1265;22719;-37
2023/05/18 01:59:33;;;;;;;;;1.50;1.50;;;;;22.02;40.77;101828.12;110266;1265;20680;-38
2023/05/18 02:02:00;;;;;;;;;1.00;1.00;;;;;22.01;40.73;101823.50;110230;1265;22772;-39
2023/05/18 02:04:28;;;;;;;;;2.00;1.00;;;;;22.02;40.81;101825.77;110193;1251;22142;-39
2023/05/18 02:06:55;;;;;;;;;1.00;1.00;;;;;22.03;40.71;101825.69;110178;1265;19196;-39
2023/05/18 02:09:23;;;;;;;;;1.00;1.00;;;;;22.04;40.75;101829.40;110236;1257;19543;-38
2023/05/18 02:11:50;;;;;;;;;2.00;1.00;;;;;22.03;40.75;101831.09;110204;1266;22760;-39
2023/05/18 02:14:18;;;;;;;;;1.00;1.00;;;;;22.02;40.78;101831.74;110189;1251;20884;-40
2023/05/18 02:16:51;;;;;;;;;2.00;2.00;;;;;22.02;40.79;101829.89;110252;1251;19872;-39
2023/05/18 02:19:19;;;;;;;;;1.00;1.00;;;;;22.02;40.77;101830.13;110237;1259;20422;-38
2023/05/18 02:21:46;;;;;;;;;1.00;1.00;;;;;22.02;40.76;101827.06;110264;1250;20771;-40
2023/05/18 02:24:14;;;;;;;;;2.00;1.00;;;;;22.02;40.74;101828.12;110284;1265;22152;-39
2023/05/18 02:26:41;;;;;;;;;1.00;1.00;;;;;22.02;40.76;101832.84;110307;1265;22212;-40
2023/05/18 02:29:10;;;;;;;;;1.00;1.00;;;;;22.02;40.59;101834.20;110257;1265;20888;-39
2023/05/18 02:31:38;;;;;;;;;1.00;1.00;;;;;22.02;40.65;101834.71;110195;1265;19822;-39
2023/05/18 02:34:05;;;;;;;;;1.00;1.00;;;;;22.01;40.69;101833.89;110280;1265;18492;-38
2023/05/18 02:36:35;;;;;;;;;1.00;1.00;;;;;22.01;40.65;101833.66;110263;1251;20731;-39
2023/05/18 02:39:03;;;;;;;;;1.00;1.00;;;;;22.02;40.76;101833.20;110222;1265;20029;-39
2023/05/18 02:41:31;;;;;;;;;1.00;1.00;;;;;22.02;40.74;101835.91;110190;1265;18939;-40
2023/05/18 02:43:58;;;;;;;;;1.00;1.00;;;;;22.02;40.57;101838.00;110219;1265;19792;-40
2023/05/18 02:46:26;;;;;;;;;1.00;1.00;;;;;22.02;40.53;101837.38;110245;1257;19878;-40
2023/05/18 02:48:53;;;;;;;;;1.50;1.50;;;;;22.02;40.59;101839.41;110207;1265;19965;-40
2023/05/18 02:51:21;;;;;;;;;1.00;1.00;;;;;22.02;40.65;101841.27;110191;1250;20783;-40
2023/05/18 02:53:49;;;;;;;;;1.00;1.00;;;;;22.02;40.74;101841.60;110227;1257;19658;-40
2023/05/18 02:56:17;;;;;;;;;1.00;1.00;;;;;22.01;40.51;101846.64;110216;1265;18619;-41
2023/05/18 02:58:44;;;;;;;;;1.00;1.00;;;;;21.99;40.61;101848.22;110306;1265;19342;-40
2023/05/18 03:01:12;;;;;;;;;1.00;1.00;;;;;22.00;40.74;101847.48;110293;1251;19582;-40
2023/05/18 03:03:40;;;;;;;;;1.00;1.00;;;;;21.99;40.61;101850.23;110302;1265;18866;-40
2023/05/18 03:06:08;;;;;;;;;1.00;1.00;;;;;22.00;40.51;101853.23;110282;1251;22630;-40
2023/05/18 03:08:36;;;;;;;;;1.50;1.00;;;;;22.01;40.70;101855.93;110278;1257;18321;-39
2023/05/18 03:11:04;;;;;;;;;1.00;1.00;;;;;22.00;40.55;101853.77;110342;1249;18622;-42
2023/05/18 03:13:31;;;;;;;;;1.00;1.00;;;;;21.99;40.59;101854.08;110290;1265;20651;-41
2023/05/18 03:15:59;;;;;;;;;1.00;1.00;;;;;21.99;40.60;101854.77;110259;1265;18389;-38
2023/05/18 03:18:26;;;;;;;;;2.00;1.00;;;;;22.00;40.46;101860.33;110256;1265;18586;-39
2023/05/18 03:20:54;;;;;;;;;1.00;1.00;;;;;21.99;40.53;101859.55;110278;1250;22511;-38
2023/05/18 03:23:22;;;;;;;;;1.00;1.00;;;;;22.00;40.59;101860.21;110272;1265;18460;-39
2023/05/18 03:25:52;;;;;;;;;1.00;1.00;;;;;21.99;40.44;101865.93;110283;1265;19917;-38
2023/05/18 03:28:20;;;;;;;;;1.00;1.00;;;;;21.99;40.58;101867.95;110275;1265;21503;-40
2023/05/18 03:30:47;;;;;;;;;1.00;1.00;;;;;21.99;40.59;101874.30;110282;1265;19610;-39
2023/05/18 03:33:15;;;;;;;;;1.00;1.00;;;;;21.99;40.45;101878.69;110264;1265;22649;-39
2023/05/18 03:35:43;;;;;;;;;2.00;2.00;;;;;21.99;40.51;101879.06;110312;1265;22095;-39
2023/05/18 03:38:10;;;;;;;;;1.00;1.00;;;;;21.99;40.32;101883.02;110263;1265;18419;-39
2023/05/18 03:40:37;;;;;;;;;1.00;1.00;;;;;21.99;40.38;101884.66;110275;1265;18623;-38
2023/05/18 03:43:05;;;;;;;;;1.00;1.00;;;;;21.99;40.42;101885.55;110287;1265;19368;-38
2023/05/18 03:45:32;;;;;;;;;1.00;1.00;;;;;21.99;40.42;101887.00;110185;1265;19574;-39
2023/05/18 03:48:00;;;;;;;;;2.00;1.00;;;;;22.00;40.38;101887.48;110200;1265;18547;-40
2023/05/18 03:50:28;;;;;;;;;2.00;1.00;;;;;21.98;40.40;101884.18;110259;1259;21484;-39
2023/05/18 03:52:56;;;;;;;;;1.00;1.00;;;;;22.00;40.53;101890.59;110273;1265;20641;-39
2023/05/18 03:55:23;;;;;;;;;1.00;1.00;;;;;22.00;40.50;101894.61;110308;1265;20133;-39
2023/05/18 03:57:52;;;;;;;;;1.00;1.00;;;;;21.99;40.43;101900.64;110286;1265;20713;-39
2023/05/18 04:00:20;;;;;;;;;1.00;1.00;;;;;22.00;40.44;101910.23;110288;1265;19592;-38
2023/05/18 04:02:50;;;;;;;;;1.00;1.00;;;;;22.01;40.26;101911.61;110290;1251;20102;-39
2023/05/18 04:05:18;;;;;;;;;1.00;1.00;;;;;22.00;40.44;101913.31;110301;1251;20759;-39
2023/05/18 04:07:45;;;;;;;;;2.00;1.00;;;;;21.99;40.49;101916.85;110349;1250;19684;-39
2023/05/18 04:10:13;;;;;;;;;1.00;1.00;;;;;21.99;40.54;101919.79;110286;1265;18716;-39
2023/05/18 04:12:40;;;;;;;;;1.00;1.00;;;;;22.00;40.36;101925.86;110302;1251;20826;-39
2023/05/18 04:15:08;;;;;;;;;1.00;1.00;;;;;22.00;40.53;101924.41;110277;1265;19575;-39
2023/05/18 04:17:35;;;;;;;;;1.00;1.00;;;;;21.99;40.35;101920.70;110287;1265;19943;-38
2023/05/18 04:20:11;;;;;;;;;1.00;1.00;;;;;22.00;40.40;101931.69;110278;1249;20842;-39
2023/05/18 04:22:42;;;;;;;;;1.00;1.00;;;;;22.01;40.50;101936.36;110314;1265;19566;-39
2023/05/18 04:25:10;;;;;;;;;1.00;1.00;;;;;22.00;40.50;101943.90;110334;1265;20209;-38
2023/05/18 04:27:38;;;;;;;;;1.00;1.00;;;;;22.04;40.60;101950.02;110366;1265;19374;-38
2023/05/18 04:30:07;;;;;;;;;1.00;1.00;;;;;22.06;40.56;101951.80;110305;1265;19602;-38
2023/05/18 04:32:35;;;;;;;;;1.00;1.00;;;;;22.08;40.90;101953.66;110326;1257;20156;-39
2023/05/18 04:35:03;;;;;;;;;1.00;1.00;;;;;22.07;40.92;101960.89;110297;1265;20593;-41
2023/05/18 04:37:30;;;;;;;;;2.00;2.00;;;;;22.02;40.83;101954.56;110285;1260;18457;-39
2023/05/18 04:40:00;;;;;;;;;2.00;2.00;;;;;21.96;40.76;101956.54;110303;1251;20003;-40
2023/05/18 04:42:28;;;;;;;;;4.00;4.00;;;;;21.89;39.93;101958.33;110295;1251;20919;-40
2023/05/18 04:44:55;;;;;;;;;5.00;4.00;;;;;21.83;39.48;101964.00;110302;1265;18517;-40
2023/05/18 04:47:23;;;;;;;;;2.00;2.00;;;;;21.79;38.91;101964.22;110234;1249;20065;-41
2023/05/18 04:49:52;;;;;;;;;4.00;4.00;;;;;21.75;38.65;101968.61;110288;1257;21431;-38
2023/05/18 04:52:19;;;;;;;;;3.00;3.00;;;;;21.73;38.63;101970.27;110269;1257;18429;-39
2023/05/18 04:54:46;;;;;;;;;5.00;4.00;;;;;21.71;38.54;101976.34;110285;1265;18629;-40
2023/05/18 04:57:14;;;;;;;;;5.00;4.00;;;;;21.69;38.75;101980.41;110272;1251;20765;-40
2023/05/18 04:59:45;;;;;;;;;4.00;4.00;;;;;21.65;39.53;101978.25;110260;1265;18314;-42
2023/05/18 05:02:12;;;;;;;;;4.00;4.00;;;;;21.65;39.24;101980.80;110159;1266;20587;-41
2023/05/18 05:04:40;;;;;;;;;4.00;4.00;;;;;21.63;39.01;101985.52;110074;1265;20839;-40
2023/05/18 05:07:07;;;;;;;;;4.00;4.00;;;;;21.61;38.36;101980.25;110083;1265;19639;-40
2023/05/18 05:09:35;;;;;;;;;5.00;5.00;;;;;21.59;38.35;101985.69;110148;1265;19095;-39
2023/05/18 05:12:02;;;;;;;;;5.00;5.00;;;;;21.58;38.14;101987.02;110151;1265;19335;-39
2023/05/18 05:14:30;;;;;;;;;5.00;5.00;;;;;21.57;37.92;101990.98;110111;1257;18512;-40
2023/05/18 05:16:57;;;;;;;;;4.00;4.00;;;;;21.57;37.77;101986.96;110159;1265;18641;-40
2023/05/18 05:19:24;;;;;;;;;4.00;2.00;;;;;21.57;37.56;101986.10;110258;1265;20726;-41
2023/05/18 05:21:52;;;;;;;;;5.00;4.00;;;;;21.57;37.21;101992.41;110244;1251;19619;-40
2023/05/18 05:24:19;;;;;;;;;4.50;4.50;;;;;21.56;37.67;101990.73;110241;1266;18630;-40
2023/05/18 05:26:47;;;;;;;;;7.00;5.00;;;;;21.55;37.45;101991.92;110237;1265;19327;-41
2023/05/18 05:29:14;;;;;;;;;4.00;4.00;;;;;21.56;37.34;101988.89;110222;1257;21998;-39
2023/05/18 05:31:41;;;;;;;;;5.00;5.00;;;;;21.56;37.47;101987.66;110216;1265;20039;-40
2023/05/18 05:34:10;;;;;;;;;4.00;4.00;;;;;21.55;37.21;101988.10;110245;1265;19332;-40
2023/05/18 05:36:38;;;;;;;;;4.00;4.00;;;;;21.55;37.20;101988.79;110260;1265;22197;-40
2023/05/18 05:39:05;;;;;;;;;4.00;4.00;;;;;21.55;36.81;101989.94;110248;1265;19986;-40
2023/05/18 05:41:33;;;;;;;;;4.00;4.00;;;;;21.54;36.81;101991.95;110271;1251;22169;-40
2023/05/18 05:44:00;;;;;;;;;5.00;5.00;;;;;21.50;36.78;101994.77;110284;1251;22127;-40
2023/05/18 05:46:28;;;;;;;;;5.00;4.00;;;;;21.46;36.68;101988.44;110272;1265;18616;-39
2023/05/18 05:48:56;;;;;;;;;5.00;5.00;;;;;21.51;36.77;101989.78;110284;1265;19238;-40
2023/05/18 05:51:23;;;;;;;;;5.00;4.00;;;;;21.53;36.68;101987.94;110292;1265;18505;-39
2023/05/18 05:53:50;;;;;;;;;5.00;4.00;;;;;21.52;36.68;101995.15;110256;1265;22710;-39
2023/05/18 05:56:18;;;;;;;;;4.00;2.00;;;;;21.47;36.50;101991.83;110260;1251;20919;-39
2023/05/18 05:58:45;;;;;;;;;7.00;7.00;;;;;21.47;36.46;101995.66;110262;1251;19730;-39
2023/05/18 06:01:13;;;;;;;;;8.00;7.00;;;;;21.47;36.40;101995.76;110255;1250;21622;-39
2023/05/18 06:03:40;;;;;;;;;11.00;8.00;;;;;21.32;36.03;101996.17;110250;1265;19386;-40
2023/05/18 06:06:07;;;;;;;;;5.00;5.00;;;;;20.96;36.03;101995.69;110276;1251;20920;-40
2023/05/18 06:08:35;;;;;;;;;7.00;7.00;;;;;20.49;36.24;101999.61;110286;1265;18613;-40
2023/05/18 06:11:02;;;;;;;;;5.00;5.00;;;;;20.23;36.67;101994.98;110242;1265;22613;-40
2023/05/18 06:13:30;;;;;;;;;6.00;5.00;;;;;20.30;36.42;102004.11;110289;1251;19625;-40
2023/05/18 06:15:58;;;;;;;;;5.00;4.00;;;;;20.37;36.44;102002.35;110248;1265;19863;-39
2023/05/18 06:18:25;;;;;;;;;4.67;4.67;;;;;20.25;36.28;102000.56;110261;1265;19341;-39
2023/05/18 06:20:53;;;;;;;;;4.00;4.00;;;;;20.37;36.39;101999.29;110288;1265;19574;-41
2023/05/18 06:23:22;;;;;;;;;3.50;3.50;;;;;20.39;36.11;101998.34;110254;1265;22645;-40
2023/05/18 06:25:49;;;;;;;;;3.00;3.00;;;;;20.35;36.19;101999.48;110212;1265;22824;-39
2023/05/18 06:28:17;;;;;;;;;2.00;2.00;;;;;20.21;36.47;102000.42;110194;1251;19661;-39
2023/05/18 06:30:44;;;;;;;;;2.50;2.50;;;;;20.31;36.17;101998.42;110299;1265;18652;-39
2023/05/18 06:33:12;;;;;;;;;4.00;4.00;;;;;20.24;36.14;102004.81;110277;1265;19375;-40
2023/05/18 06:35:40;;;;;;;;;1.00;1.00;;;;;20.35;36.18;102005.13;110269;1250;23278;-40
2023/05/18 06:38:07;;;;;;;;;4.00;4.00;;;;;20.21;36.24;102002.60;110300;1265;18591;-39
2023/05/18 06:40:34;;;;;;;;;4.00;4.00;;;;;19.87;36.43;102013.34;110266;1260;19352;-40
2023/05/18 06:43:02;;;;;;;;;4.00;4.00;;;;;19.90;36.65;102012.91;110257;1265;18726;-40
2023/05/18 06:45:29;;;;;;;;;4.00;4.00;;;;;20.02;36.46;102013.96;110293;1257;20040;-39
2023/05/18 06:47:57;;;;;;;;;4.00;4.00;;;;;20.29;36.26;102012.95;110272;1251;20798;-39
2023/05/18 06:50:24;;;;;;;;;4.00;2.00;;;;;20.14;36.32;102017.17;110302;1265;18566;-39
2023/05/18 06:52:52;;;;;;;;;2.00;2.00;;;;;20.25;36.13;102014.73;110274;1251;20038;-40
2023/05/18 06:55:19;;;;;;;;;4.00;4.00;;;;;20.21;35.90;102014.90;110295;1265;20549;-39
2023/05/18 06:57:47;;;;;;;;;2.00;2.00;;;;;20.20;36.21;102015.02;110287;1265;19396;-40
2023/05/18 07:00:15;;;;;;;;;3.00;3.00;;;;;20.13;36.20;102019.91;110264;1251;22196;-43
2023/05/18 07:02:44;;;;;;;;;3.00;3.00;;;;;20.18;36.08;102014.27;110280;1250;21664;-40
2023/05/18 07:05:12;;;;;;;;;4.00;4.00;;;;;20.23;36.12;102014.55;110328;1251;18427;-40
2023/05/18 07:07:39;;;;;;;;;3.00;3.00;;;;;20.15;36.20;102017.48;110276;1257;21468;-39
2023/05/18 07:10:07;;;;;;;;;4.00;4.00;;;;;20.29;36.06;102018.34;110300;1251;19503;-39
2023/05/18 07:12:34;;;;;;;;;7.00;5.00;;;;;20.31;36.01;102019.23;110312;1251;19561;-39
2023/05/18 07:15:02;;;;;;;;;2.50;2.50;;;;;20.32;35.87;102020.05;110244;1265;22238;-39
2023/05/18 07:17:30;;;;;;;;;5.00;5.00;;;;;20.16;36.07;102021.97;110273;1265;22209;-41
2023/05/18 07:19:57;;;;;;;;;2.33;2.00;;;;;20.23;36.18;102018.77;110284;1265;19605;-40
2023/05/18 07:22:25;;;;;;;;;2.00;2.00;;;;;20.38;36.34;102027.17;110252;1265;20049;-39
2023/05/18 07:24:52;;;;;;;;;3.00;3.00;;;;;20.33;36.06;102022.90;110305;1251;20813;-39
2023/05/18 07:27:20;;;;;;;;;4.00;2.00;;;;;20.21;36.31;102022.17;110229;1257;23677;-40
2023/05/18 07:29:47;;;;;;;;;3.00;3.00;;;;;20.39;36.10;102026.38;110288;1251;19897;-40
2023/05/18 07:32:15;;;;;;;;;4.00;4.00;;;;;20.46;36.06;102026.40;110282;1265;20962;-40
2023/05/18 07:34:45;;;;;;;;;4.00;4.00;;;;;20.40;36.14;102027.45;110291;1251;23587;-40
2023/05/18 07:37:13;;;;;;;;;2.00;2.00;;;;;20.39;35.93;102026.88;110265;1265;20116;-39
2023/05/18 07:39:40;;;;;;;;;4.00;4.00;;;;;20.33;36.11;102028.55;110254;1266;22246;-40
2023/05/18 07:42:07;;;;;;;;;4.00;3.00;;;;;20.37;36.19;102028.52;110269;1251;18426;-40
2023/05/18 07:44:35;;;;;;;;;3.00;3.00;;;;;20.39;36.37;102035.98;110239;1265;18621;-39
2023/05/18 07:47:02;;;;;;;;;4.00;4.00;;;;;20.34;36.50;102033.84;110189;1251;22186;-40
2023/05/18 07:49:30;;;;;;;;;3.00;3.00;;;;;20.37;36.53;102037.97;110165;1266;20693;-42
2023/05/18 07:51:58;;;;;;;;;3.00;3.00;;;;;20.39;36.49;102034.65;110202;1265;20059;-40
2023/05/18 07:54:25;;;;;;;;;3.50;3.50;;;;;20.49;36.55;102037.52;110204;1251;22040;-40
2023/05/18 07:56:53;;;;;;;;;4.00;4.00;;;;;20.47;36.69;102038.44;110193;1251;19686;-40
2023/05/18 07:59:20;;;;;;;;;4.00;4.00;;;;;20.45;36.51;102035.23;110255;1251;18658;-40
2023/05/18 08:01:47;;;;;;;;;4.00;4.00;;;;;20.43;36.63;102030.48;110206;1265;19546;-39
2023/05/18 08:04:15;;;;;;;;;4.00;4.00;;;;;20.46;36.50;102032.18;110150;1265;19713;-39
2023/05/18 08:06:42;;;;;;;;;4.00;4.00;;;;;20.51;36.19;102031.79;110142;1265;18654;-40
2023/05/18 08:09:10;;;;;;;;;3.00;3.00;;;;;20.49;36.09;102033.05;110143;1265;19352;-40
2023/05/18 08:11:37;;;;;;;;;3.00;3.00;;;;;20.64;35.98;102037.94;110159;1251;19551;-39
2023/05/18 08:14:05;;;;;;;;;1.00;1.00;;;;;20.62;35.98;102035.63;110176;1265;19994;-39
2023/05/18 08:16:36;;;;;;;;;3.00;3.00;;;;;20.59;35.97;102034.82;110233;1265;19229;-38
2023/05/18 08:19:03;;;;;;;;;3.00;3.00;;;;;20.55;36.14;102036.15;110226;1265;18550;-42
2023/05/18 08:21:31;;;;;;;;;1.00;1.00;;;;;20.60;36.00;102034.53;110228;1265;19967;-39
2023/05/18 08:23:59;;;;;;;;;3.50;3.50;;;;;20.66;36.05;102030.92;110211;1265;22350;-39
2023/05/18 08:26:26;;;;;;;;;3.00;3.00;;;;;20.61;36.14;102023.95;110253;1265;19590;-40
2023/05/18 08:28:54;;;;;;;;;3.00;3.00;;;;;20.59;35.98;102027.23;110243;1265;18802;-40
2023/05/18 08:31:21;;;;;;;;;4.00;2.00;;;;;20.60;35.83;102027.04;110257;1265;20754;-40
2023/05/18 08:33:49;;;;;;;;;1.00;1.00;;;;;20.62;35.68;102023.70;110228;1265;18386;-40
2023/05/18 08:36:16;;;;;;;;;2.50;2.50;;;;;20.69;36.03;102033.67;110227;1265;20675;-41
2023/05/18 08:38:44;;;;;;;;;2.00;2.00;;;;;20.72;36.10;102032.11;110234;1265;20669;-40
2023/05/18 08:41:11;;;;;;;;;3.00;3.00;;;;;20.70;35.91;102026.73;110229;1260;22581;-41
2023/05/18 08:43:39;;;;;;;;;4.00;4.00;;;;;20.70;36.03;102035.96;110240;1265;18682;-40
2023/05/18 08:46:06;;;;;;;;;2.00;1.50;;;;;20.73;35.96;102038.20;110221;1265;19604;-41
2023/05/18 08:48:34;;;;;;;;;2.00;2.00;;;;;20.73;35.77;102032.71;110242;1266;20195;-40
2023/05/18 08:51:01;;;;;;;;;2.50;2.50;;;;;20.74;35.83;102028.46;110276;1251;20209;-38
2023/05/18 08:53:29;;;;;;;;;2.00;2.00;;;;;20.71;36.04;102028.98;110231;1250;22338;-39
2023/05/18 08:55:56;;;;;;;;;2.00;2.00;;;;;20.75;35.77;102030.19;110264;1265;18401;-39
2023/05/18 08:58:24;;;;;;;;;2.00;2.00;;;;;20.82;35.80;102029.71;110225;1265;18841;-38
2023/05/18 09:00:53;;;;;;;;;3.00;3.00;;;;;20.78;35.91;102022.98;110233;1265;19318;-38
2023/05/18 09:03:20;;;;;;;;;2.00;2.00;;;;;20.67;36.29;102024.29;110258;1265;18453;-39
2023/05/18 09:05:48;;;;;;;;;2.50;2.00;;;;;20.59;36.26;102031.35;110232;1265;19971;-39
2023/05/18 09:08:15;;;;;;;;;4.00;3.00;;;;;20.63;36.35;102030.15;110195;1265;19347;-39
2023/05/18 09:10:43;;;;;;;;;4.00;4.00;;;;;20.68;36.26;102032.66;110135;1249;20640;-39
2023/05/18 09:13:10;;;;;;;;;3.00;3.00;;;;;20.65;36.35;102030.05;110139;1265;19022;-40
2023/05/18 09:15:37;;;;;;;;;4.00;4.00;;;;;20.64;36.48;102028.59;110209;1266;22005;-39
2023/05/18 09:18:05;;;;;;;;;3.00;3.00;;;;;20.71;36.59;102024.05;110230;1265;19817;-39
2023/05/18 09:20:32;;;;;;;;;4.67;4.00;;;;;20.72;36.51;102023.56;110205;1251;22203;-39
2023/05/18 09:23:00;;;;;;;;;3.00;3.00;;;;;20.66;36.70;102026.02;110214;1265;21097;-39
2023/05/18 09:25:27;;;;;;;;;3.00;3.00;;;;;20.70;36.36;102024.31;110225;1250;19595;-39
2023/05/18 09:27:55;;;;;;;;;3.00;3.00;;;;;20.79;36.30;102022.74;110219;1265;18844;-40
2023/05/18 09:30:22;;;;;;;;;2.00;2.00;;;;;20.73;36.33;102026.97;110269;1265;19258;-39
2023/05/18 09:32:49;;;;;;;;;2.00;2.00;;;;;20.69;36.21;102029.64;110187;1251;19655;-39
2023/05/18 09:35:17;;;;;;;;;1.00;1.00;;;;;20.65;35.82;102028.41;110219;1265;18648;-39
2023/05/18 09:37:45;;;;;;;;;2.00;2.00;;;;;20.71;35.89;102025.38;110238;1265;19512;-39
2023/05/18 09:40:12;;;;;;;;;2.00;2.00;;;;;20.70;35.38;102029.61;110204;1265;22671;-39
2023/05/18 09:42:40;;;;;;;;;2.00;2.00;;;;;20.77;35.53;102031.88;110237;1265;22654;-40
2023/05/18 09:45:07;;;;;;;;;3.00;3.00;;;;;20.80;35.59;102030.48;110190;1265;21023;-38
2023/05/18 09:47:35;;;;;;;;;4.00;2.67;;;;;20.72;35.79;102024.91;110235;1265;19555;-39
2023/05/18 09:50:03;;;;;;;;;2.00;2.00;;;;;20.76;35.89;102030.81;110266;1251;20082;-39
2023/05/18 09:52:30;;;;;;;;;2.00;2.00;;;;;20.79;36.07;102027.88;110282;1265;21042;-39
2023/05/18 09:54:58;;;;;;;;;2.00;2.00;;;;;20.92;35.80;102025.14;110260;1265;22818;-41
2023/05/18 09:57:26;;;;;;;;;2.00;2.00;;;;;20.92;36.04;102023.67;110255;1266;18906;-40
2023/05/18 09:59:53;;;;;;;;;2.00;2.00;;;;;20.88;36.10;102021.52;110279;1265;21151;-43
2023/05/18 10:02:24;;;;;;;;;2.00;2.00;;;;;20.79;36.04;102026.23;110248;1265;18646;-38
2023/05/18 10:04:51;;;;;;;;;2.33;2.00;;;;;20.77;36.28;102025.31;110299;1265;18762;-39
2023/05/18 10:07:19;;;;;;;;;2.00;2.00;;;;;20.80;36.50;102017.62;110263;1265;20663;-39
2023/05/18 10:09:47;;;;;;;;;1.00;1.00;;;;;20.81;36.61;102018.59;110289;1265;20022;-39
2023/05/18 10:12:14;;;;;;;;;2.00;2.00;;;;;20.82;36.35;102023.41;110269;1265;20009;-39
2023/05/18 10:14:42;;;;;;;;;3.50;3.50;;;;;20.80;36.58;102022.12;110263;1250;19537;-40
2023/05/18 10:17:09;;;;;;;;;1.50;1.50;;;;;20.77;36.23;102020.35;110284;1251;22646;-39
2023/05/18 10:19:37;;;;;;;;;4.00;4.00;;;;;20.82;36.17;102021.73;110260;1257;18904;-40
2023/05/18 10:22:04;;;;;;;;;3.00;3.00;;;;;20.68;36.06;102021.66;110254;1265;19333;-39
2023/05/18 10:24:32;;;;;;;;;2.00;2.00;;;;;20.71;36.02;102017.66;110259;1265;18421;-40
2023/05/18 10:27:00;;;;;;;;;2.00;2.00;;;;;20.79;36.09;102007.70;110249;1250;21943;-39
2023/05/18 10:29:27;;;;;;;;;2.50;2.50;;;;;20.79;36.21;102004.40;110276;1265;22864;-40
2023/05/18 10:31:55;;;;;;;;;2.00;1.67;;;;;20.78;36.24;102007.35;110280;1265;18382;-39
2023/05/18 10:34:23;;;;;;;;;2.00;2.00;;;;;20.72;36.16;102006.73;110257;1257;22260;-39
2023/05/18 10:36:51;;;;;;;;;2.00;2.00;;;;;20.64;36.48;102008.38;110224;1265;21052;-40
2023/05/18 10:39:18;;;;;;;;;3.33;3.33;;;;;20.64;36.53;102015.83;110243;1265;22995;-44
2023/05/18 10:41:46;;;;;;;;;4.00;3.00;;;;;20.70;36.39;102011.27;110248;1265;18845;-40
2023/05/18 10:44:13;;;;;;;;;2.00;2.00;;;;;20.80;36.39;102005.19;110155;1265;20644;-40
2023/05/18 10:46:41;;;;;;;;;2.00;2.00;;;;;20.76;36.59;102009.93;110250;1265;19571;-41
2023/05/18 10:49:12;;;;;;;;;2.00;2.00;;;;;20.74;36.52;102011.39;110249;1265;19987;-40
2023/05/18 10:51:39;;;;;;;;;2.00;2.00;;;;;20.82;36.50;102009.58;110246;1249;21489;-39
2023/05/18 10:54:07;;;;;;;;;2.00;2.00;;;;;20.79;36.39;102009.50;110246;1250;19606;-41
2023/05/18 10:56:36;;;;;;;;;4.00;4.00;;;;;20.71;36.51;102007.30;110267;1265;18699;-40
2023/05/18 10:59:03;;;;;;;;;2.00;2.00;;;;;20.67;36.59;102008.59;110190;1265;22827;-41
2023/05/18 11:01:31;;;;;;;;;2.00;2.00;;;;;20.72;36.50;102003.27;110236;1265;18426;-40
2023/05/18 11:03:59;;;;;;;;;3.00;2.00;;;;;20.74;36.57;102000.70;110278;1265;19968;-40
2023/05/18 11:06:26;;;;;;;;;2.00;2.00;;;;;20.77;36.72;102001.84;110222;1250;21927;-40
2023/05/18 11:08:53;;;;;;;;;2.00;2.00;;;;;20.80;36.61;102001.76;110269;1251;19713;-40
2023/05/18 11:11:21;;;;;;;;;2.00;2.00;;;;;20.77;36.32;102000.93;110259;1265;19974;-40
2023/05/18 11:13:48;;;;;;;;;2.50;2.00;;;;;20.77;36.20;101998.63;110257;1250;19390;-40
2023/05/18 11:16:17;;;;;;;;;2.00;2.00;;;;;20.78;35.96;102001.76;110238;1265;18522;-39
2023/05/18 11:18:44;;;;;;;;;2.00;2.00;;;;;20.71;35.98;101997.95;110247;1265;19225;-43